createdAt,value
2022-08-26T00:02:08.426Z,22.30
2022-08-26T00:04:37.434Z,22.30
2022-08-26T00:07:06.306Z,22.30
2022-08-26T00:09:38.959Z,22.30
2022-08-26T00:12:12.453Z,22.20
2022-08-26T00:14:42.835Z,22.20
2022-08-26T00:17:11.130Z,22.20
2022-08-26T00:19:39.752Z,22.20
2022-08-26T00:22:10.635Z,22.20
2022-08-26T00:24:39.952Z,22.10
2022-08-26T00:27:16.296Z,22.10
2022-08-26T00:29:47.337Z,22.10
2022-08-26T00:32:16.096Z,22.00
2022-08-26T00:34:46.554Z,22.10
2022-08-26T00:37:16.264Z,22.10
2022-08-26T00:39:44.875Z,22.10
2022-08-26T00:42:14.107Z,22.10
2022-08-26T00:44:42.414Z,22.10
2022-08-26T00:47:17.935Z,22.00
2022-08-26T00:49:48.614Z,21.90
2022-08-26T00:52:19.065Z,21.90
2022-08-26T00:54:51.348Z,21.90
2022-08-26T00:57:20.095Z,21.90
2022-08-26T00:59:49.866Z,21.90
2022-08-26T01:02:21.451Z,21.90
2022-08-26T01:04:55.993Z,21.90
2022-08-26T01:07:25.684Z,21.90
2022-08-26T01:09:54.190Z,21.80
2022-08-26T01:12:23.209Z,21.80
2022-08-26T01:14:53.517Z,21.80
2022-08-26T01:17:23.394Z,21.80
2022-08-26T01:19:54.384Z,21.80
2022-08-26T01:22:26.563Z,21.70
2022-08-26T01:24:56.728Z,21.70
2022-08-26T01:27:27.539Z,21.70
2022-08-26T01:30:01.902Z,21.70
2022-08-26T01:32:30.728Z,21.70
2022-08-26T01:35:00.478Z,21.70
2022-08-26T01:37:30.948Z,21.60
2022-08-26T01:40:01.046Z,21.60
2022-08-26T01:42:29.725Z,21.50
2022-08-26T01:45:00.788Z,21.60
2022-08-26T01:47:32.985Z,21.60
2022-08-26T01:50:03.115Z,21.60
2022-08-26T01:52:32.946Z,21.50
2022-08-26T01:55:03.071Z,21.50
2022-08-26T01:57:32.082Z,21.60
2022-08-26T02:00:03.209Z,21.50
2022-08-26T02:02:31.699Z,21.50
2022-08-26T02:05:01.470Z,21.50
2022-08-26T02:07:30.807Z,21.60
2022-08-26T02:10:03.406Z,21.50
2022-08-26T02:12:32.127Z,21.50
2022-08-26T02:15:03.170Z,21.50
2022-08-26T02:17:36.928Z,21.50
2022-08-26T02:20:07.597Z,21.50
2022-08-26T02:22:42.024Z,21.50
2022-08-26T02:25:18.038Z,21.50
2022-08-26T02:27:47.735Z,21.40
2022-08-26T02:30:17.228Z,21.40
2022-08-26T02:32:46.558Z,21.40
2022-08-26T02:35:21.935Z,21.50
2022-08-26T02:37:50.677Z,21.30
2022-08-26T02:40:22.269Z,21.40
2022-08-26T02:42:52.982Z,21.40
2022-08-26T02:45:24.550Z,21.40
2022-08-26T02:47:53.274Z,21.30
2022-08-26T02:50:22.468Z,21.30
2022-08-26T02:52:50.957Z,21.40
2022-08-26T02:55:21.008Z,21.40
2022-08-26T02:57:53.550Z,21.40
2022-08-26T03:00:21.962Z,21.40
2022-08-26T03:02:53.168Z,21.30
2022-08-26T03:05:24.023Z,21.30
2022-08-26T03:07:52.877Z,21.30
2022-08-26T03:10:23.888Z,21.30
2022-08-26T03:12:54.438Z,21.20
2022-08-26T03:15:24.578Z,21.20
2022-08-26T03:17:53.068Z,21.10
2022-08-26T03:20:21.516Z,21.20
2022-08-26T03:22:51.638Z,21.20
2022-08-26T03:25:20.715Z,21.30
2022-08-26T03:27:51.469Z,21.20
2022-08-26T03:30:39.029Z,21.20
2022-08-26T03:33:14.241Z,21.20
2022-08-26T03:35:43.624Z,21.20
2022-08-26T03:38:12.354Z,21.30
2022-08-26T03:40:40.605Z,21.30
2022-08-26T03:43:11.998Z,21.10
2022-08-26T03:45:41.149Z,21.10
2022-08-26T03:48:11.479Z,21.00
2022-08-26T03:50:40.486Z,21.00
2022-08-26T03:53:12.771Z,21.10
2022-08-26T03:55:41.728Z,21.10
2022-08-26T03:58:11.572Z,21.10
2022-08-26T04:00:40.308Z,21.10
2022-08-26T04:03:09.974Z,21.10
2022-08-26T04:05:39.188Z,21.10
2022-08-26T04:08:08.577Z,21.00
2022-08-26T04:10:38.715Z,21.00
2022-08-26T04:13:07.054Z,20.90
2022-08-26T04:15:39.537Z,20.90
2022-08-26T04:18:07.968Z,20.80
2022-08-26T04:20:36.407Z,20.80
2022-08-26T04:23:05.198Z,20.80
2022-08-26T04:25:34.258Z,20.90
2022-08-26T04:28:04.108Z,20.90
2022-08-26T04:30:32.554Z,21.00
2022-08-26T04:33:12.629Z,21.00
2022-08-26T04:35:43.151Z,21.00
2022-08-26T04:38:12.078Z,21.10
2022-08-26T04:40:46.705Z,21.20
2022-08-26T04:43:15.571Z,21.20
2022-08-26T04:45:44.248Z,21.30
2022-08-26T04:48:15.084Z,21.30
2022-08-26T04:50:45.368Z,21.40
2022-08-26T04:53:19.018Z,21.50
2022-08-26T04:55:48.397Z,21.70
2022-08-26T04:58:17.499Z,21.90
2022-08-26T05:00:48.822Z,22.00
2022-08-26T05:03:19.822Z,22.00
2022-08-26T05:05:51.030Z,22.10
2022-08-26T05:08:20.630Z,22.10
2022-08-26T05:10:50.311Z,22.10
2022-08-26T05:13:21.373Z,22.10
2022-08-26T05:15:50.041Z,22.10
2022-08-26T05:18:21.433Z,22.20
2022-08-26T05:20:54.506Z,22.20
2022-08-26T05:23:24.110Z,22.10
2022-08-26T05:25:59.157Z,21.90
2022-08-26T05:28:31.458Z,21.90
2022-08-26T05:31:00.558Z,21.80
2022-08-26T05:33:30.872Z,21.80
2022-08-26T05:35:59.313Z,21.80
2022-08-26T05:38:30.394Z,21.90
2022-08-26T05:40:59.144Z,21.90
2022-08-26T05:43:27.903Z,22.10
2022-08-26T05:45:57.750Z,22.10
2022-08-26T05:48:26.071Z,22.10
2022-08-26T05:50:55.831Z,22.20
2022-08-26T05:53:26.100Z,22.30
2022-08-26T05:55:55.342Z,22.50
2022-08-26T05:58:24.563Z,22.50
2022-08-26T06:01:00.149Z,22.70
2022-08-26T06:03:28.522Z,22.70
2022-08-26T06:05:58.392Z,22.80
2022-08-26T06:08:27.703Z,23.00
2022-08-26T06:10:56.927Z,23.10
2022-08-26T06:13:26.989Z,23.20
2022-08-26T06:15:59.581Z,23.20
2022-08-26T06:18:32.757Z,23.10
2022-08-26T06:21:03.398Z,23.00
2022-08-26T06:23:49.098Z,23.20
2022-08-26T06:26:17.893Z,23.30
2022-08-26T06:28:47.202Z,23.20
2022-08-26T06:31:16.930Z,23.10
2022-08-26T06:33:45.589Z,23.10
2022-08-26T06:36:19.663Z,23.00
2022-08-26T06:38:49.523Z,23.10
2022-08-26T06:41:18.246Z,23.10
2022-08-26T06:43:46.581Z,23.00
2022-08-26T06:46:16.649Z,23.00
2022-08-26T06:48:45.338Z,22.90
2022-08-26T06:51:14.488Z,23.00
2022-08-26T06:53:47.082Z,23.20
2022-08-26T06:56:17.756Z,23.10
2022-08-26T06:58:47.262Z,23.20
2022-08-26T07:01:16.840Z,23.10
2022-08-26T07:03:46.868Z,23.20
2022-08-26T07:06:18.734Z,23.30
2022-08-26T07:08:48.512Z,23.50
2022-08-26T07:11:16.992Z,23.60
2022-08-26T07:13:45.349Z,23.50
2022-08-26T07:16:15.301Z,23.60
2022-08-26T07:18:45.828Z,23.60
2022-08-26T07:21:15.049Z,23.50
2022-08-26T07:23:43.481Z,23.70
2022-08-26T07:26:16.525Z,23.80
2022-08-26T07:28:46.350Z,23.90
2022-08-26T07:31:18.467Z,23.80
2022-08-26T07:33:46.920Z,23.80
2022-08-26T07:36:16.431Z,23.90
2022-08-26T07:38:45.632Z,24.20
2022-08-26T07:41:15.996Z,24.30
2022-08-26T07:43:45.578Z,24.40
2022-08-26T07:46:26.922Z,24.40
2022-08-26T07:48:56.602Z,24.50
2022-08-26T07:51:25.084Z,24.70
2022-08-26T07:53:54.402Z,24.80
2022-08-26T07:56:24.599Z,24.80
2022-08-26T07:58:53.872Z,24.80
2022-08-26T08:01:23.897Z,24.90
2022-08-26T08:03:52.443Z,25.10
2022-08-26T08:06:21.244Z,25.10
2022-08-26T08:08:51.665Z,25.30
2022-08-26T08:11:21.399Z,25.40
2022-08-26T08:13:56.150Z,25.30
2022-08-26T08:16:32.265Z,25.60
2022-08-26T08:19:02.156Z,25.70
2022-08-26T08:21:32.061Z,25.80
2022-08-26T08:24:00.768Z,25.80
2022-08-26T08:26:29.053Z,26.00
2022-08-26T08:28:59.372Z,25.80
2022-08-26T08:31:58.581Z,25.90
2022-08-26T08:34:18.352Z,26.00
2022-08-26T08:36:49.330Z,26.20
2022-08-26T08:39:17.892Z,26.30
2022-08-26T08:41:53.828Z,26.40
2022-08-26T08:46:57.773Z,26.50
2022-08-26T08:49:28.173Z,26.70
2022-08-26T08:52:00.971Z,26.70
2022-08-26T08:54:32.222Z,26.60
2022-08-26T08:57:05.973Z,26.50
2022-08-26T08:59:38.287Z,26.70
2022-08-26T09:02:12.641Z,26.80
2022-08-26T09:05:03.208Z,26.90
2022-08-26T09:07:36.699Z,27.00
2022-08-26T09:10:07.632Z,27.00
2022-08-26T09:12:36.691Z,27.00
2022-08-26T09:15:09.028Z,27.00
2022-08-26T09:17:44.970Z,27.10
2022-08-26T09:20:18.292Z,27.20
2022-08-26T09:23:07.560Z,27.30
2022-08-26T09:25:45.994Z,27.30
2022-08-26T09:28:17.462Z,27.40
2022-08-26T09:31:04.787Z,27.30
2022-08-26T09:33:37.692Z,27.50
2022-08-26T09:36:26.450Z,27.60
2022-08-26T09:38:55.412Z,27.60
2022-08-26T09:41:26.861Z,27.70
2022-08-26T09:44:15.558Z,27.80
2022-08-26T09:46:48.279Z,28.00
2022-08-26T09:49:37.507Z,28.00
2022-08-26T09:52:43.069Z,27.90
2022-08-26T09:55:17.492Z,28.10
2022-08-26T09:57:48.656Z,28.30
2022-08-26T10:00:30.496Z,28.50
2022-08-26T10:03:01.352Z,28.70
2022-08-26T10:05:36.078Z,28.50
2022-08-26T10:08:17.707Z,28.40
2022-08-26T10:10:48.915Z,28.60
2022-08-26T10:13:25.238Z,28.80
2022-08-26T10:15:57.278Z,28.70
2022-08-26T10:18:34.662Z,28.80
2022-08-26T10:21:08.751Z,28.70
2022-08-26T10:26:13.520Z,28.50
2022-08-26T10:29:18.801Z,28.40
2022-08-26T10:32:05.650Z,28.40
2022-08-26T10:34:35.828Z,28.60
2022-08-26T10:37:14.896Z,28.90
2022-08-26T10:39:55.229Z,29.20
2022-08-26T10:42:27.539Z,29.40
2022-08-26T10:45:04.162Z,29.60
2022-08-26T10:47:36.141Z,29.60
2022-08-26T10:50:11.778Z,29.60
2022-08-26T10:52:49.282Z,29.70
2022-08-26T10:55:21.480Z,29.80
2022-08-26T10:57:56.468Z,29.90
2022-08-26T11:00:45.806Z,29.70
2022-08-26T11:03:31.691Z,29.30
2022-08-26T11:06:15.172Z,29.00
2022-08-26T11:08:48.412Z,28.80
2022-08-26T11:11:31.792Z,28.80
2022-08-26T11:14:02.747Z,28.80
2022-08-26T11:16:36.015Z,28.80
2022-08-26T11:19:13.418Z,28.70
2022-08-26T11:21:49.504Z,28.70
2022-08-26T11:24:38.734Z,28.70
2022-08-26T11:27:12.557Z,28.70
2022-08-26T11:30:01.768Z,28.70
2022-08-26T11:32:45.431Z,28.70
2022-08-26T11:35:32.162Z,28.70
2022-08-26T11:38:20.722Z,29.00
2022-08-26T11:41:06.333Z,29.40
2022-08-26T11:43:37.351Z,29.80
2022-08-26T11:46:07.396Z,29.70
2022-08-26T11:48:38.573Z,29.60
2022-08-26T11:51:08.928Z,29.80
2022-08-26T11:53:38.392Z,29.90
2022-08-26T11:56:25.883Z,29.90
2022-08-26T11:58:59.835Z,29.80
2022-08-26T12:01:31.294Z,29.80
2022-08-26T12:04:01.077Z,29.60
2022-08-26T12:06:30.887Z,29.40
2022-08-26T12:09:00.574Z,28.60
2022-08-26T12:11:30.583Z,28.10
2022-08-26T12:14:01.582Z,27.60
2022-08-26T12:16:32.340Z,27.10
2022-08-26T12:19:01.689Z,26.70
2022-08-26T12:21:34.538Z,26.40
2022-08-26T12:24:04.802Z,26.30
2022-08-26T12:26:35.061Z,26.20
2022-08-26T12:29:19.916Z,25.90
2022-08-26T12:31:49.946Z,25.70
2022-08-26T12:34:18.753Z,25.40
2022-08-26T12:36:48.355Z,25.20
2022-08-26T12:39:17.572Z,25.10
2022-08-26T12:41:47.902Z,25.00
2022-08-26T12:44:35.422Z,24.80
2022-08-26T12:47:08.465Z,24.60
2022-08-26T12:49:37.371Z,24.30
2022-08-26T12:52:07.571Z,24.20
2022-08-26T12:54:56.621Z,24.00
2022-08-26T12:57:27.401Z,23.90
2022-08-26T13:00:12.524Z,24.00
2022-08-26T13:02:42.148Z,24.00
2022-08-26T13:05:20.742Z,24.10
2022-08-26T13:08:04.709Z,24.20
2022-08-26T13:10:36.973Z,24.30
2022-08-26T13:13:05.306Z,24.40
2022-08-26T13:15:33.690Z,24.20
2022-08-26T13:18:03.820Z,24.10
2022-08-26T13:20:32.392Z,24.10
2022-08-26T13:23:00.613Z,24.00
2022-08-26T13:25:28.781Z,23.90
2022-08-26T13:27:57.102Z,24.10
2022-08-26T13:30:25.692Z,24.10
2022-08-26T13:32:54.123Z,24.10
2022-08-26T13:35:24.614Z,23.90
2022-08-26T13:37:53.020Z,24.00
2022-08-26T13:40:21.405Z,24.10
2022-08-26T13:42:50.182Z,24.30
2022-08-26T13:45:18.980Z,24.30
2022-08-26T13:47:47.222Z,24.50
2022-08-26T13:50:15.662Z,24.40
2022-08-26T13:52:45.412Z,24.20
2022-08-26T13:55:13.622Z,24.20
2022-08-26T13:57:41.798Z,24.40
2022-08-26T14:00:11.356Z,24.20
2022-08-26T14:02:40.074Z,24.20
2022-08-26T14:05:08.782Z,24.20
2022-08-26T14:07:37.073Z,24.20
2022-08-26T14:10:07.341Z,24.30
2022-08-26T14:12:35.621Z,24.20
2022-08-26T14:15:03.941Z,24.20
2022-08-26T14:17:33.032Z,24.10
2022-08-26T14:20:01.432Z,24.00
2022-08-26T14:22:29.692Z,24.00
2022-08-26T14:24:58.112Z,24.00
2022-08-26T14:27:27.915Z,23.90
2022-08-26T14:29:56.319Z,23.90
2022-08-26T14:32:25.981Z,23.80
2022-08-26T14:34:54.292Z,23.60
2022-08-26T14:37:23.052Z,23.50
2022-08-26T14:39:51.934Z,23.50
2022-08-26T14:42:22.663Z,23.50
2022-08-26T14:44:54.763Z,23.70
2022-08-26T14:47:23.180Z,23.70
2022-08-26T14:49:51.672Z,23.90
2022-08-26T14:52:19.910Z,24.00
2022-08-26T14:54:49.211Z,24.10
2022-08-26T14:57:23.402Z,24.00
2022-08-26T14:59:53.499Z,24.00
2022-08-26T15:02:32.881Z,24.10
2022-08-26T15:05:02.303Z,24.20
2022-08-26T15:07:30.592Z,24.20
2022-08-26T15:09:59.802Z,24.20
2022-08-26T15:12:28.216Z,24.20
2022-08-26T15:14:57.898Z,24.50
2022-08-26T15:17:26.389Z,24.50
2022-08-26T15:19:54.881Z,24.40
2022-08-26T15:22:23.192Z,24.40
2022-08-26T15:24:53.645Z,24.30
2022-08-26T15:27:22.292Z,24.30
2022-08-26T15:29:50.615Z,24.30
2022-08-26T15:32:21.092Z,24.40
2022-08-26T15:34:53.113Z,24.40
2022-08-26T15:37:21.436Z,24.50
2022-08-26T15:39:49.737Z,24.50
2022-08-26T15:42:18.093Z,24.50
2022-08-26T15:44:46.922Z,24.50
2022-08-26T15:47:15.492Z,24.50
2022-08-26T15:49:45.362Z,24.50
2022-08-26T15:52:13.732Z,24.60
2022-08-26T15:54:43.182Z,24.60
2022-08-26T15:57:14.398Z,24.70
2022-08-26T15:59:44.728Z,24.70
2022-08-26T16:02:15.296Z,24.90
2022-08-26T16:04:45.093Z,24.90
2022-08-26T16:07:13.768Z,25.00
2022-08-26T16:09:42.051Z,25.00
2022-08-26T16:12:10.459Z,25.00
2022-08-26T16:14:40.952Z,24.90
2022-08-26T16:17:27.772Z,24.80
2022-08-26T16:19:57.732Z,24.90
2022-08-26T16:22:27.190Z,25.00
2022-08-26T16:24:57.712Z,24.80
2022-08-26T16:27:26.513Z,24.80
2022-08-26T16:29:54.875Z,24.80
2022-08-26T16:32:23.111Z,24.70
2022-08-26T16:34:56.750Z,24.70
2022-08-26T16:37:28.291Z,24.70
2022-08-26T16:39:57.578Z,24.70
2022-08-26T16:42:25.912Z,24.70
2022-08-26T16:44:54.143Z,24.60
2022-08-26T16:47:23.313Z,24.50
2022-08-26T16:49:51.552Z,24.40
2022-08-26T16:52:19.862Z,24.40
2022-08-26T16:54:49.681Z,24.40
2022-08-26T16:57:19.011Z,24.40
2022-08-26T16:59:48.369Z,24.40
2022-08-26T17:02:16.679Z,24.30
2022-08-26T17:04:46.194Z,24.30
2022-08-26T17:07:16.390Z,24.20
2022-08-26T17:09:44.632Z,24.10
2022-08-26T17:12:14.308Z,24.00
2022-08-26T17:14:42.654Z,24.00
2022-08-26T17:17:14.343Z,24.00
2022-08-26T17:19:46.975Z,24.00
2022-08-26T17:22:15.631Z,24.00
2022-08-26T17:24:44.072Z,24.00
2022-08-26T17:27:12.390Z,24.00
2022-08-26T17:29:42.098Z,24.10
2022-08-26T17:32:10.320Z,24.00
2022-08-26T17:34:38.682Z,24.00
2022-08-26T17:37:06.991Z,24.00
2022-08-26T17:39:37.342Z,24.00
2022-08-26T17:42:05.912Z,23.90
2022-08-26T17:44:34.882Z,23.90
2022-08-26T17:47:05.470Z,23.90
2022-08-26T17:49:34.259Z,23.90
2022-08-26T17:52:03.352Z,23.80
2022-08-26T17:54:31.641Z,23.80
2022-08-26T17:57:00.213Z,23.80
2022-08-26T17:59:30.570Z,23.70
2022-08-26T18:01:59.917Z,23.70
2022-08-26T18:04:29.728Z,23.60
2022-08-26T18:06:58.067Z,23.60
2022-08-26T18:09:26.278Z,23.50
2022-08-26T18:11:54.473Z,23.50
2022-08-26T18:14:22.699Z,23.40
2022-08-26T18:16:51.110Z,23.30
2022-08-26T18:19:20.433Z,23.20
2022-08-26T18:21:50.112Z,23.30
2022-08-26T18:24:18.548Z,23.20
2022-08-26T18:26:49.692Z,23.30
2022-08-26T18:29:18.631Z,23.30
2022-08-26T18:31:46.922Z,23.40
2022-08-26T18:34:16.699Z,23.40
2022-08-26T18:36:45.153Z,23.40
2022-08-26T18:39:15.627Z,23.20
2022-08-26T18:41:45.133Z,23.00
2022-08-26T18:44:14.255Z,23.00
2022-08-26T18:46:42.832Z,23.00
2022-08-26T18:49:11.699Z,23.00
2022-08-26T18:51:40.079Z,23.00
2022-08-26T18:54:08.785Z,22.90
2022-08-26T18:56:39.310Z,22.90
2022-08-26T18:59:08.634Z,22.80
2022-08-26T19:01:37.588Z,22.70
2022-08-26T19:04:06.648Z,22.70
2022-08-26T19:06:35.742Z,22.70
2022-08-26T19:09:05.115Z,22.70
2022-08-26T19:11:42.302Z,22.80
2022-08-26T19:14:15.732Z,22.80
2022-08-26T19:16:44.892Z,22.90
2022-08-26T19:19:13.431Z,22.90
2022-08-26T19:21:41.931Z,23.00
2022-08-26T19:24:15.750Z,22.90
2022-08-26T19:26:45.420Z,23.00
2022-08-26T19:29:15.543Z,22.90
2022-08-26T19:31:46.409Z,22.90
2022-08-26T19:34:16.404Z,22.90
2022-08-26T19:36:48.658Z,22.90
2022-08-26T19:39:16.953Z,22.80
2022-08-26T19:41:46.298Z,22.80
2022-08-26T19:44:38.239Z,22.80
2022-08-26T19:47:07.845Z,22.80
2022-08-26T19:49:36.469Z,22.80
2022-08-26T19:52:05.781Z,22.90
2022-08-26T19:54:34.733Z,22.80
2022-08-26T19:57:03.320Z,22.80
2022-08-26T19:59:33.681Z,22.70
2022-08-26T20:02:05.058Z,22.70
2022-08-26T20:04:35.703Z,22.70
2022-08-26T20:07:05.518Z,22.70
2022-08-26T20:09:34.842Z,22.70
2022-08-26T20:12:03.882Z,22.70
2022-08-26T20:14:34.701Z,22.70
2022-08-26T20:17:03.386Z,22.70
2022-08-26T20:19:50.113Z,22.70
2022-08-26T20:22:18.483Z,22.60
2022-08-26T20:24:46.759Z,22.60
2022-08-26T20:27:15.563Z,22.50
2022-08-26T20:29:45.272Z,22.50
2022-08-26T20:32:13.723Z,22.60
2022-08-26T20:34:42.823Z,22.50
2022-08-26T20:37:13.422Z,22.30
2022-08-26T20:39:41.714Z,22.30
2022-08-26T20:42:20.551Z,22.30
2022-08-26T20:44:54.708Z,22.30
2022-08-26T20:47:23.330Z,22.20
2022-08-26T20:49:52.299Z,22.20
2022-08-26T20:52:21.051Z,22.20
2022-08-26T20:54:50.287Z,22.20
2022-08-26T20:57:18.697Z,22.20
2022-08-26T20:59:47.065Z,22.20
2022-08-26T21:02:16.715Z,22.20
2022-08-26T21:04:45.047Z,22.20
2022-08-26T21:07:13.386Z,22.10
2022-08-26T21:09:41.806Z,22.10
2022-08-26T21:12:10.691Z,22.10
2022-08-26T21:14:39.085Z,22.10
2022-08-26T21:17:07.515Z,22.10
2022-08-26T21:19:37.664Z,22.10
2022-08-26T21:22:06.014Z,22.00
2022-08-26T21:24:34.321Z,22.00
2022-08-26T21:27:02.571Z,22.00
2022-08-26T21:29:30.814Z,22.00
2022-08-26T21:32:00.167Z,21.90
2022-08-26T21:34:28.584Z,21.90
2022-08-26T21:36:58.518Z,22.00
2022-08-26T21:39:28.985Z,22.00
2022-08-26T21:41:58.004Z,22.00
2022-08-26T21:44:27.418Z,22.00
2022-08-26T21:46:55.947Z,22.00
2022-08-26T21:49:24.251Z,21.90
2022-08-26T21:51:54.466Z,21.90
2022-08-26T21:54:24.271Z,21.90
2022-08-26T21:56:54.925Z,21.90
2022-08-26T21:59:23.241Z,21.90
2022-08-26T22:01:51.716Z,21.80
2022-08-26T22:04:19.954Z,21.80
2022-08-26T22:06:49.263Z,21.80
2022-08-26T22:09:20.184Z,21.80
2022-08-26T22:11:50.075Z,21.80
2022-08-26T22:14:21.105Z,21.70
2022-08-26T22:16:50.726Z,21.70
2022-08-26T22:19:20.276Z,21.60
2022-08-26T22:21:49.633Z,21.60
2022-08-26T22:24:18.675Z,21.60
2022-08-26T22:26:49.841Z,21.50
2022-08-26T22:29:19.005Z,21.50
2022-08-26T22:31:47.532Z,21.50
2022-08-26T22:34:17.510Z,21.50
2022-08-26T22:36:47.174Z,21.50
2022-08-26T22:39:16.387Z,21.50
2022-08-26T22:41:45.205Z,21.40
2022-08-26T22:44:15.075Z,21.40
2022-08-26T22:46:44.027Z,21.40
2022-08-26T22:49:15.995Z,21.30
2022-08-26T22:51:44.576Z,21.30
2022-08-26T22:54:13.034Z,21.30
2022-08-26T22:56:41.515Z,21.20
2022-08-26T22:59:10.165Z,21.30
2022-08-26T23:01:41.350Z,21.20
2022-08-26T23:04:11.644Z,21.10
2022-08-26T23:06:40.976Z,21.10
2022-08-26T23:09:09.418Z,21.10
2022-08-26T23:11:38.843Z,21.00
2022-08-26T23:14:10.609Z,21.00
2022-08-26T23:16:41.674Z,20.90
2022-08-26T23:19:10.793Z,21.00
2022-08-26T23:21:39.512Z,21.00
2022-08-26T23:24:08.392Z,21.00
2022-08-26T23:26:37.219Z,21.00
2022-08-26T23:29:06.279Z,20.90
2022-08-26T23:31:35.719Z,20.90
2022-08-26T23:34:22.955Z,21.00
2022-08-26T23:36:52.883Z,21.10
2022-08-26T23:39:22.572Z,21.10
2022-08-26T23:41:50.852Z,21.20
2022-08-26T23:44:20.859Z,21.00
2022-08-26T23:46:49.150Z,21.00
2022-08-26T23:49:19.019Z,21.00
2022-08-26T23:52:04.866Z,20.90
2022-08-26T23:54:33.959Z,21.00
2022-08-26T23:57:02.303Z,20.90
2022-08-26T23:59:30.583Z,20.90
